createdAt,value
2019-04-14T00:00:55.567Z,22.45
2019-04-14T00:04:03.048Z,17.25
2019-04-14T00:06:39.667Z,18.00
2019-04-14T00:09:18.756Z,15.70
2019-04-14T00:11:54.952Z,21.13
2019-04-14T00:14:29.657Z,15.90
2019-04-14T00:17:04.299Z,18.57
2019-04-14T00:19:41.208Z,15.53
2019-04-14T00:22:16.302Z,18.23
2019-04-14T00:24:51.078Z,22.77
2019-04-14T00:27:25.970Z,16.77
2019-04-14T00:30:01.119Z,15.28
2019-04-14T00:32:38.349Z,22.23
2019-04-14T00:35:19.338Z,18.48
2019-04-14T00:38:11.617Z,16.67
2019-04-14T00:41:00.726Z,16.45
2019-04-14T00:46:36.762Z,18.10
2019-04-14T00:49:11.411Z,13.67
2019-04-14T00:51:46.150Z,18.62
2019-04-14T00:54:21.767Z,19.73
2019-04-14T00:56:56.333Z,18.52
2019-04-14T00:59:31.229Z,16.62
2019-04-14T01:02:06.312Z,17.85
2019-04-14T01:04:40.902Z,15.60
2019-04-14T01:09:50.937Z,15.23
2019-04-14T01:12:25.779Z,14.87
2019-04-14T01:15:00.772Z,14.37
2019-04-14T01:20:10.147Z,17.17
2019-04-14T01:22:44.730Z,17.15
2019-04-14T01:25:19.354Z,17.33
2019-04-14T01:27:53.943Z,18.23
2019-04-14T01:33:03.270Z,19.37
2019-04-14T01:35:37.952Z,14.77
2019-04-14T01:38:12.668Z,12.68
2019-04-14T01:41:08.556Z,16.12
2019-04-14T01:43:42.963Z,13.05
2019-04-14T01:46:24.672Z,16.25
2019-04-14T01:48:56.406Z,17.37
2019-04-14T01:51:49.289Z,14.28
2019-04-14T01:54:43.079Z,19.00
2019-04-14T01:57:39.474Z,15.00
2019-04-14T02:00:33.787Z,16.40
2019-04-14T02:03:08.523Z,15.70
2019-04-14T02:05:43.233Z,14.60
2019-04-14T02:08:17.945Z,13.58
2019-04-14T02:10:52.288Z,16.15
2019-04-14T02:13:26.853Z,21.23
2019-04-14T02:19:06.712Z,13.40
2019-04-14T02:21:41.320Z,16.17
2019-04-14T02:24:15.889Z,15.13
2019-04-14T02:29:25.689Z,16.77
2019-04-14T02:32:32.827Z,16.10
2019-04-14T02:35:04.521Z,15.30
2019-04-14T02:40:21.496Z,17.80
2019-04-14T02:45:31.725Z,19.35
2019-04-14T02:50:40.321Z,20.13
2019-04-14T02:53:37.030Z,19.30
2019-04-14T02:55:58.152Z,17.77
2019-04-14T03:01:08.193Z,20.50
2019-04-14T03:03:41.334Z,19.15
2019-04-14T03:08:58.996Z,16.20
2019-04-14T03:11:30.855Z,23.35
2019-04-14T03:17:26.967Z,17.57
2019-04-14T03:20:20.521Z,20.00
2019-04-14T03:22:49.917Z,18.03
2019-04-14T03:25:29.652Z,17.43
2019-04-14T03:28:26.232Z,24.87
2019-04-14T03:39:01.717Z,17.25
2019-04-14T03:41:29.746Z,19.20
2019-04-14T03:44:11.281Z,23.13
2019-04-14T03:46:50.716Z,17.63
2019-04-14T03:49:28.299Z,18.05
2019-04-14T03:54:15.872Z,22.15
2019-04-14T03:56:55.803Z,17.05
2019-04-14T03:59:30.410Z,17.73
2019-04-14T04:02:05.367Z,17.27
2019-04-14T04:04:40.188Z,17.52
2019-04-14T04:07:14.940Z,14.85
2019-04-14T04:09:56.219Z,21.87
2019-04-14T04:12:31.322Z,17.87
2019-04-14T04:15:06.274Z,22.77
2019-04-14T04:17:52.282Z,24.45
2019-04-14T04:20:52.439Z,19.90
2019-04-14T04:23:42.491Z,17.87
2019-04-14T04:26:27.840Z,22.67
2019-04-14T04:32:18.658Z,20.77
2019-04-14T04:35:10.821Z,18.62
2019-04-14T04:37:52.013Z,18.47
2019-04-14T04:40:29.278Z,21.97
2019-04-14T04:43:03.853Z,21.60
2019-04-14T04:53:18.183Z,20.20
2019-04-14T04:55:52.695Z,19.92
2019-04-14T04:58:28.322Z,21.40
2019-04-14T05:01:03.512Z,20.33
2019-04-14T05:03:38.540Z,23.30
2019-04-14T05:07:09.793Z,19.60
2019-04-14T05:10:09.306Z,20.08
2019-04-14T05:12:50.144Z,22.53
2019-04-14T05:33:31.680Z,20.43
2019-04-14T05:36:06.385Z,20.25
2019-04-14T05:38:40.945Z,20.80
2019-04-14T05:41:15.849Z,22.90
2019-04-14T05:43:55.752Z,19.57
2019-04-14T05:46:27.357Z,24.47
2019-04-14T05:49:02.259Z,22.35
2019-04-14T05:51:37.307Z,24.57
2019-04-14T05:54:12.143Z,24.87
2019-04-14T05:56:47.115Z,26.80
2019-04-14T05:59:21.997Z,22.50
2019-04-14T06:01:57.670Z,22.23
2019-04-14T06:04:33.176Z,23.10
2019-04-14T06:07:07.727Z,24.63
2019-04-14T06:09:42.132Z,20.57
2019-04-14T06:12:16.711Z,20.27
2019-04-14T06:14:51.269Z,23.67
2019-04-14T06:17:25.868Z,24.63
2019-04-14T06:22:33.097Z,24.03
2019-04-14T06:25:08.684Z,20.30
2019-04-14T06:27:43.278Z,20.57
2019-04-14T06:30:29.365Z,21.02
2019-04-14T06:33:09.577Z,21.10
2019-04-14T06:36:08.510Z,19.75
2019-04-14T06:38:45.407Z,22.42
2019-04-14T06:41:20.943Z,23.93
2019-04-14T06:43:55.062Z,22.70
2019-04-14T06:46:29.667Z,17.27
2019-04-14T06:49:04.254Z,21.30
2019-04-14T06:51:38.726Z,19.10
2019-04-14T06:54:13.056Z,24.95
2019-04-14T06:56:47.281Z,18.25
2019-04-14T06:59:21.914Z,21.00
2019-04-14T07:09:49.725Z,17.07
2019-04-14T07:12:24.329Z,19.50
2019-04-14T07:14:59.276Z,13.72
2019-04-14T07:17:34.075Z,15.28
2019-04-14T07:20:09.263Z,15.80
2019-04-14T07:22:44.088Z,16.00
2019-04-14T07:25:18.710Z,11.27
2019-04-14T07:27:53.091Z,10.53
2019-04-14T07:30:54.119Z,9.70
2019-04-14T07:33:50.281Z,9.67
2019-04-14T07:36:33.425Z,6.77
2019-04-14T07:39:26.282Z,6.93
2019-04-14T07:42:13.664Z,5.33
2019-04-14T07:45:09.557Z,7.17
2019-04-14T07:47:57.600Z,5.63
2019-04-14T07:51:02.647Z,5.50
2019-04-14T07:53:55.285Z,5.80
2019-04-14T07:56:48.571Z,5.47
2019-04-14T07:59:50.593Z,4.93
2019-04-14T08:05:22.659Z,4.90
2019-04-14T08:07:57.282Z,4.80
2019-04-14T08:10:31.950Z,33.78
2019-04-14T08:15:39.283Z,7.58
2019-04-14T08:18:14.098Z,4.80
2019-04-14T08:20:48.672Z,4.40
2019-04-14T08:23:23.272Z,4.87
2019-04-14T08:25:57.803Z,4.53
2019-04-14T08:28:32.278Z,4.00
2019-04-14T08:31:06.861Z,4.97
2019-04-14T08:33:41.612Z,3.85
2019-04-14T08:38:30.943Z,4.20
2019-04-14T08:43:46.290Z,3.90
2019-04-14T08:46:38.303Z,3.73
2019-04-14T08:49:41.606Z,4.25
2019-04-14T08:52:43.944Z,4.40
2019-04-14T08:58:11.327Z,3.73
2019-04-14T09:01:02.127Z,3.92
2019-04-14T09:03:54.336Z,4.13
2019-04-14T09:07:05.745Z,4.03
2019-04-14T09:12:28.279Z,3.73
2019-04-14T09:15:02.876Z,4.20
2019-04-14T09:17:37.670Z,3.80
2019-04-14T09:20:16.520Z,3.77
2019-04-14T09:23:59.316Z,3.65
2019-04-14T09:26:33.766Z,3.85
2019-04-14T09:29:08.279Z,3.70
2019-04-14T09:31:42.779Z,4.10
2019-04-14T09:39:24.274Z,3.47
2019-04-14T09:41:58.922Z,3.40
2019-04-14T09:44:33.293Z,3.00
2019-04-14T09:47:07.924Z,2.87
2019-04-14T09:49:42.243Z,3.70
2019-04-14T09:52:16.689Z,3.02
2019-04-14T09:54:51.091Z,3.13
2019-04-14T09:57:25.692Z,3.03
2019-04-14T10:00:00.121Z,3.90
2019-04-14T10:02:34.744Z,4.07
2019-04-14T10:07:42.629Z,4.70
2019-04-14T10:10:17.083Z,4.50
2019-04-14T10:12:51.761Z,3.73
2019-04-14T10:17:59.121Z,3.92
2019-04-14T10:20:33.680Z,3.80
2019-04-14T10:23:08.145Z,3.67
2019-04-14T10:25:42.749Z,3.70
2019-04-14T10:28:17.278Z,3.60
2019-04-14T10:30:51.793Z,3.77
2019-04-14T10:33:26.293Z,3.50
2019-04-14T10:36:00.795Z,3.20
2019-04-14T10:38:35.306Z,3.43
2019-04-14T10:41:09.784Z,3.73
2019-04-14T10:46:17.294Z,4.27
2019-04-14T10:48:51.749Z,5.90
2019-04-14T10:55:06.293Z,3.62
2019-04-14T10:57:41.118Z,3.77
2019-04-14T11:00:17.622Z,3.77
2019-04-14T11:02:51.943Z,3.83
2019-04-14T11:05:28.365Z,4.25
2019-04-14T11:08:02.888Z,3.70
2019-04-14T11:15:15.419Z,3.90
2019-04-14T11:17:51.653Z,3.98
2019-04-14T11:20:26.319Z,3.98
2019-04-14T11:23:03.411Z,4.07
2019-04-14T11:25:37.275Z,4.00
2019-04-14T11:28:11.723Z,3.67
2019-04-14T11:30:46.282Z,4.23
2019-04-14T11:33:39.440Z,4.20
2019-04-14T11:36:23.271Z,3.80
2019-04-14T11:39:06.309Z,3.87
2019-04-14T11:41:41.284Z,4.50
2019-04-14T11:44:15.874Z,3.90
2019-04-14T11:46:50.388Z,4.37
2019-04-14T11:49:25.142Z,3.72
2019-04-14T11:51:59.786Z,4.17
2019-04-14T11:57:07.335Z,4.03
2019-04-14T12:00:00.437Z,4.37
2019-04-14T12:03:03.707Z,3.60
2019-04-14T12:06:02.715Z,3.62
2019-04-14T12:08:46.293Z,3.90
2019-04-14T12:11:20.892Z,3.12
2019-04-14T12:19:00.945Z,3.30
2019-04-14T12:23:31.728Z,3.22
2019-04-14T12:26:06.285Z,3.25
2019-04-14T12:28:40.791Z,3.10
2019-04-14T12:31:15.314Z,3.50
2019-04-14T12:33:49.860Z,3.43
2019-04-14T12:38:57.058Z,3.77
2019-04-14T12:41:39.747Z,3.73
2019-04-14T12:44:45.265Z,3.60
2019-04-14T12:47:41.722Z,3.65
2019-04-14T12:52:57.275Z,4.05
2019-04-14T12:55:31.945Z,4.60
2019-04-14T13:01:04.675Z,3.90
2019-04-14T13:03:42.005Z,4.77
2019-04-14T13:06:16.636Z,4.70
2019-04-14T13:08:51.272Z,4.50
2019-04-14T13:11:25.687Z,4.12
2019-04-14T13:16:33.066Z,4.03
2019-04-14T13:19:07.714Z,4.28
2019-04-14T13:21:42.112Z,5.07
2019-04-14T13:24:16.712Z,5.33
2019-04-14T13:26:51.123Z,5.33
2019-04-14T13:29:25.641Z,5.77
2019-04-14T13:32:00.639Z,7.75
2019-04-14T13:34:35.286Z,7.27
2019-04-14T13:37:09.764Z,7.00
2019-04-14T13:39:44.280Z,6.65
2019-04-14T13:42:18.800Z,6.07
2019-04-14T13:49:59.123Z,11.07
2019-04-14T13:52:45.739Z,10.97
2019-04-14T13:55:10.721Z,9.87
2019-04-14T13:57:45.273Z,9.97
2019-04-14T14:00:22.408Z,9.67
2019-04-14T14:02:56.948Z,9.53
2019-04-14T14:05:31.345Z,8.60
2019-04-14T14:08:05.900Z,9.67
2019-04-14T14:10:40.394Z,15.70
2019-04-14T14:13:49.282Z,10.32
2019-04-14T14:16:45.366Z,12.60
2019-04-14T14:19:30.488Z,11.50
2019-04-14T14:22:30.068Z,24.57
2019-04-14T14:25:21.272Z,13.83
2019-04-14T14:27:55.888Z,14.23
2019-04-14T14:33:45.746Z,13.68
2019-04-14T14:38:53.921Z,11.97
2019-04-14T14:41:28.565Z,18.37
2019-04-14T14:47:05.657Z,17.98
2019-04-14T14:49:59.735Z,20.45
2019-04-14T14:52:34.767Z,21.33
2019-04-14T14:55:09.294Z,20.72
2019-04-14T14:57:43.788Z,23.40
2019-04-14T15:00:27.277Z,18.48
2019-04-14T15:05:29.965Z,18.15
2019-04-14T15:08:05.706Z,26.55
2019-04-14T15:10:40.278Z,26.97
2019-04-14T15:13:14.780Z,28.55
2019-04-14T15:23:28.271Z,30.15
2019-04-14T15:26:02.843Z,28.27
2019-04-14T15:31:10.065Z,27.87
2019-04-14T15:33:44.569Z,21.52
2019-04-14T15:36:18.938Z,33.65
2019-04-14T15:38:53.276Z,23.60
2019-04-14T15:41:27.881Z,25.57
2019-04-14T15:49:09.266Z,28.03
2019-04-14T15:51:43.959Z,24.95
2019-04-14T15:54:18.645Z,28.67
2019-04-14T15:57:01.278Z,42.43
2019-04-14T15:59:54.384Z,49.33
2019-04-14T16:02:46.560Z,25.80
2019-04-14T16:05:32.276Z,32.50
2019-04-14T16:08:28.731Z,48.05
2019-04-14T16:11:08.284Z,32.93
2019-04-14T16:14:00.411Z,37.17
2019-04-14T16:16:52.458Z,24.25
2019-04-14T16:19:36.907Z,62.48
2019-04-14T16:22:11.315Z,64.75
2019-04-14T16:24:45.940Z,105.30
2019-04-14T16:27:27.132Z,46.00
2019-04-14T16:30:18.361Z,32.42
2019-04-14T16:33:23.949Z,61.75
2019-04-14T16:35:59.472Z,55.85
2019-04-14T16:38:34.111Z,38.83
2019-04-14T16:41:08.706Z,40.05
2019-04-14T16:43:43.266Z,51.35
2019-04-14T16:46:17.962Z,37.03
2019-04-14T16:48:52.700Z,76.50
2019-04-14T16:51:31.608Z,62.03
2019-04-14T16:54:15.282Z,66.95
2019-04-14T16:57:07.306Z,47.80
2019-04-14T16:59:42.071Z,59.27
2019-04-14T17:02:16.396Z,59.63
2019-04-14T17:04:50.945Z,55.88
2019-04-14T17:12:31.765Z,71.33
2019-04-14T17:15:32.320Z,49.50
2019-04-14T17:18:28.522Z,107.30
2019-04-14T17:21:27.474Z,45.98
2019-04-14T17:24:20.547Z,62.25
2019-04-14T17:27:02.662Z,83.87
2019-04-14T17:29:57.522Z,110.60
2019-04-14T17:32:47.003Z,138.10
2019-04-14T17:35:48.630Z,57.57
2019-04-14T17:38:41.398Z,70.72
2019-04-14T17:41:24.767Z,80.60
2019-04-14T17:44:05.690Z,65.73
2019-04-14T17:46:57.554Z,66.55
2019-04-14T17:49:44.133Z,50.92
2019-04-14T17:52:36.266Z,94.52
2019-04-14T17:55:32.853Z,68.30
2019-04-14T17:58:26.519Z,76.45
2019-04-14T18:01:28.770Z,74.03
2019-04-14T18:04:13.949Z,60.97
2019-04-14T18:10:01.303Z,78.65
2019-04-14T18:12:57.560Z,64.27
2019-04-14T18:15:50.878Z,74.40
2019-04-14T18:21:14.970Z,50.37
2019-04-14T18:23:50.892Z,56.60
2019-04-14T18:26:25.425Z,87.40
2019-04-14T18:29:25.281Z,100.20
2019-04-14T18:32:08.268Z,105.50
2019-04-14T18:35:10.763Z,69.62
2019-04-14T18:40:52.727Z,64.17
2019-04-14T18:43:51.503Z,60.95
2019-04-14T18:46:45.749Z,73.02
2019-04-14T18:49:44.288Z,82.30
2019-04-14T18:52:23.737Z,94.85
2019-04-14T18:55:04.584Z,109.83
2019-04-14T18:58:03.575Z,64.00
2019-04-14T19:00:45.858Z,67.47
2019-04-14T19:05:53.411Z,79.97
2019-04-14T19:08:28.067Z,81.60
2019-04-14T19:11:13.332Z,78.33
2019-04-14T19:13:48.360Z,62.40
2019-04-14T19:16:39.883Z,66.85
2019-04-14T19:21:46.117Z,72.20
2019-04-14T19:24:20.949Z,105.40
2019-04-14T19:26:55.462Z,99.90
2019-04-14T19:31:02.119Z,115.55
2019-04-14T19:33:36.703Z,126.75
2019-04-14T19:36:12.147Z,105.45
2019-04-14T19:38:46.725Z,63.83
2019-04-14T19:41:21.285Z,182.90
2019-04-14T19:43:56.307Z,71.37
2019-04-14T19:46:31.306Z,83.22
2019-04-14T19:49:05.943Z,120.80
2019-04-14T19:51:40.320Z,93.45
2019-04-14T19:54:14.728Z,61.37
2019-04-14T19:56:49.296Z,84.25
2019-04-14T19:59:24.151Z,91.30
2019-04-14T20:01:58.728Z,107.20
2019-04-14T20:06:49.305Z,48.50
2019-04-14T20:09:24.301Z,58.57
2019-04-14T20:11:58.967Z,70.42
2019-04-14T20:14:33.422Z,62.13
2019-04-14T20:17:29.207Z,69.40
2019-04-14T20:20:21.341Z,58.27
2019-04-14T20:23:13.395Z,77.87
2019-04-14T20:26:21.285Z,128.57
2019-04-14T20:29:04.959Z,93.33
2019-04-14T20:31:54.286Z,77.00
2019-04-14T20:34:28.889Z,78.17
2019-04-14T20:39:37.245Z,73.13
2019-04-14T20:42:11.957Z,68.93
2019-04-14T20:44:46.286Z,58.55
2019-04-14T20:47:20.755Z,56.57
2019-04-14T20:49:55.286Z,72.17
2019-04-14T20:52:29.868Z,87.12
2019-04-14T20:57:37.321Z,85.92
2019-04-14T21:00:12.484Z,93.53
2019-04-14T21:03:20.974Z,66.45
2019-04-14T21:06:07.750Z,74.73
2019-04-14T21:14:55.607Z,88.57
2019-04-14T21:17:43.284Z,61.45
2019-04-14T21:20:21.641Z,55.30
2019-04-14T21:23:00.724Z,49.15
2019-04-14T21:26:00.541Z,92.40
2019-04-14T21:28:52.616Z,61.47
2019-04-14T21:31:33.429Z,48.20
2019-04-14T21:34:29.736Z,67.70
2019-04-14T21:37:35.085Z,76.07
2019-04-14T21:40:17.735Z,87.78
2019-04-14T21:42:52.256Z,49.48
2019-04-14T21:45:26.893Z,43.47
2019-04-14T21:50:34.142Z,65.57
2019-04-14T21:53:08.786Z,83.47
2019-04-14T21:58:34.612Z,63.10
2019-04-14T22:01:52.922Z,52.50
2019-04-14T22:08:16.275Z,61.10
2019-04-14T22:10:55.271Z,56.75
2019-04-14T22:13:29.711Z,55.80
2019-04-14T22:16:04.285Z,45.83
2019-04-14T22:18:38.752Z,39.07
2019-04-14T22:21:13.288Z,44.85
2019-04-14T22:24:00.322Z,39.53
2019-04-14T22:26:26.231Z,39.87
2019-04-14T22:29:02.370Z,45.83
2019-04-14T22:31:36.112Z,51.55
2019-04-14T22:34:10.674Z,38.23
2019-04-14T22:36:45.287Z,47.05
2019-04-14T22:39:19.695Z,39.00
2019-04-14T22:41:54.116Z,35.45
2019-04-14T22:44:28.686Z,39.10
2019-04-14T22:47:03.463Z,31.30
2019-04-14T22:49:37.965Z,57.13
2019-04-14T22:52:12.309Z,40.20
2019-04-14T22:54:46.785Z,42.25
2019-04-14T22:57:21.286Z,34.90
2019-04-14T22:59:55.749Z,39.05
2019-04-14T23:02:59.367Z,35.13
2019-04-14T23:05:52.411Z,37.77
2019-04-14T23:08:45.485Z,37.48
2019-04-14T23:11:40.797Z,34.83
2019-04-14T23:17:28.352Z,30.85
2019-04-14T23:20:13.558Z,31.37
2019-04-14T23:23:18.711Z,31.52
2019-04-14T23:25:52.949Z,32.93
2019-04-14T23:28:27.269Z,36.03
2019-04-14T23:31:01.900Z,39.05
2019-04-14T23:33:36.409Z,32.40
2019-04-14T23:36:10.896Z,34.50
2019-04-14T23:41:18.281Z,41.80
2019-04-14T23:43:52.865Z,33.40
2019-04-14T23:49:00.298Z,33.03
2019-04-14T23:51:34.720Z,32.83
2019-04-14T23:54:08.964Z,32.63
2019-04-14T23:59:16.101Z,32.30
